Time;durP1;ratioP1;P1;durP2;ratioP2;P2;SDS_P1;SDS_P2;PMS_P1;PMS_P2;Temp;Humidity;BMP_temperature;BMP_pressure;BME280_temperature;BME280_humidity;BME280_pressure;Samples;Min_cycle;Max_cycle;Signal;HPM_P1;HPM_P2
2023/11/15 00:00:51;;;;;;;37.30;5.90;;;10.80;99.90;;;;;;5048206;28;20400;-81
2023/11/15 00:03:17;;;;;;;32.60;7.57;;;10.80;99.90;;;;;;5047093;28;20193;-80
2023/11/15 00:05:47;;;;;;;34.57;5.13;;;10.80;99.90;;;;;;5045542;28;20198;-80
2023/11/15 00:08:13;;;;;;;33.83;5.30;;;10.80;99.90;;;;;;5046937;28;20160;-80
2023/11/15 00:10:41;;;;;;;38.37;5.90;;;10.70;99.90;;;;;;5046385;28;20166;-80
2023/11/15 00:13:08;;;;;;;34.67;6.82;;;10.80;99.90;;;;;;5048007;28;20604;-80
2023/11/15 00:15:34;;;;;;;38.92;6.00;;;10.80;99.90;;;;;;5047383;28;20185;-81
2023/11/15 00:18:04;;;;;;;34.30;5.50;;;10.80;99.90;;;;;;5046401;28;20190;-81
2023/11/15 00:20:33;;;;;;;36.55;6.43;;;10.80;99.90;;;;;;5047079;28;20189;-81
2023/11/15 00:22:59;;;;;;;34.67;5.38;;;10.80;99.90;;;;;;5048541;28;20158;-81
2023/11/15 00:25:25;;;;;;;36.72;6.10;;;10.80;99.90;;;;;;5046032;28;20197;-81
2023/11/15 00:27:51;;;;;;;39.83;6.60;;;10.80;99.90;;;;;;5047483;28;20657;-81
2023/11/15 00:30:18;;;;;;;34.87;4.93;;;10.80;99.90;;;;;;5047278;28;20196;-81
2023/11/15 00:32:46;;;;;;;37.08;6.13;;;10.90;99.90;;;;;;5047316;28;20166;-81
2023/11/15 00:35:12;;;;;;;37.60;6.35;;;10.90;99.90;;;;;;5047743;28;20166;-81
2023/11/15 00:37:38;;;;;;;39.27;5.40;;;10.90;99.90;;;;;;5046422;28;20201;-81
2023/11/15 00:40:05;;;;;;;33.67;5.40;;;10.90;99.90;;;;;;5046591;28;20268;-81
2023/11/15 00:42:31;;;;;;;33.60;5.65;;;10.90;99.90;;;;;;5046359;28;20182;-81
2023/11/15 00:44:57;;;;;;;44.50;5.43;;;10.90;99.90;;;;;;5046598;28;20198;-80
2023/11/15 00:47:23;;;;;;;34.83;5.20;;;10.90;99.90;;;;;;5046027;28;20177;-81
2023/11/15 00:49:48;;;;;;;38.47;5.90;;;10.80;99.90;;;;;;5048328;28;20430;-81
2023/11/15 00:52:14;;;;;;;47.63;5.50;;;10.80;99.90;;;;;;5048712;28;20234;-81
2023/11/15 00:54:41;;;;;;;33.10;4.47;;;10.80;99.90;;;;;;5046662;28;20185;-81
2023/11/15 00:57:06;;;;;;;36.80;6.43;;;10.90;99.90;;;;;;5046548;28;20170;-81
2023/11/15 00:59:44;;;;;;;38.80;5.80;;;10.80;99.90;;;;;;5047439;28;20166;-81
2023/11/15 01:02:11;;;;;;;30.67;4.65;;;10.80;99.90;;;;;;5048283;28;20419;-81
2023/11/15 01:04:37;;;;;;;32.42;4.50;;;10.80;99.90;;;;;;5048530;28;20185;-81
2023/11/15 01:07:06;;;;;;;33.67;5.32;;;10.90;99.90;;;;;;5047189;28;20646;-80
2023/11/15 01:09:34;;;;;;;32.83;4.53;;;10.90;99.90;;;;;;5051937;28;20220;-81
2023/11/15 01:12:00;;;;;;;35.15;5.07;;;10.80;99.90;;;;;;5053151;28;20174;-81
2023/11/15 01:14:25;;;;;;;35.65;4.65;;;10.90;99.90;;;;;;5051004;28;20265;-81
2023/11/15 01:16:52;;;;;;;33.73;4.60;;;10.90;99.90;;;;;;5051526;28;20178;-80
2023/11/15 01:19:17;;;;;;;37.72;4.57;;;10.90;99.90;;;;;;5051135;28;20193;-81
2023/11/15 01:21:43;;;;;;;33.20;5.87;;;10.90;99.90;;;;;;5053577;28;20170;-81
2023/11/15 01:24:09;;;;;;;33.10;5.63;;;10.90;99.90;;;;;;5052083;28;20189;-81
2023/11/15 01:26:34;;;;;;;34.93;4.00;;;10.90;99.90;;;;;;5051677;28;20659;-81
2023/11/15 01:29:00;;;;;;;38.87;6.20;;;10.90;99.90;;;;;;5051402;28;20662;-81
2023/11/15 01:31:26;;;;;;;31.50;4.33;;;10.90;99.90;;;;;;5051543;28;20172;-81
2023/11/15 01:33:52;;;;;;;34.97;4.10;;;10.90;99.90;;;;;;5052460;28;20245;-81
2023/11/15 01:36:18;;;;;;;33.70;4.47;;;11.00;99.90;;;;;;5051650;28;20181;-81
2023/11/15 01:38:44;;;;;;;33.20;4.57;;;11.00;99.90;;;;;;5052016;28;20177;-80
2023/11/15 01:41:10;;;;;;;34.23;4.33;;;11.00;99.90;;;;;;5051621;28;20170;-81
2023/11/15 01:43:36;;;;;;;38.47;4.57;;;11.00;99.90;;;;;;5050402;28;20216;-80
2023/11/15 01:46:02;;;;;;;32.40;4.60;;;11.00;99.90;;;;;;5049723;28;20463;-80
2023/11/15 01:48:30;;;;;;;35.42;5.50;;;11.00;99.90;;;;;;5048902;28;20162;-80
2023/11/15 01:50:56;;;;;;;31.75;4.55;;;11.00;99.90;;;;;;5048410;28;20158;-80
2023/11/15 01:53:24;;;;;;;32.33;4.43;;;11.00;99.90;;;;;;5049256;28;20235;-80
2023/11/15 01:55:50;;;;;;;35.15;4.85;;;11.00;99.90;;;;;;5049521;28;20401;-80
2023/11/15 01:58:18;;;;;;;36.40;5.00;;;11.10;99.90;;;;;;5049847;28;20166;-80
2023/11/15 02:00:45;;;;;;;33.05;4.53;;;11.10;99.90;;;;;;5049859;28;20170;-80
2023/11/15 02:03:11;;;;;;;33.20;4.55;;;11.10;99.90;;;;;;5048382;28;20189;-80
2023/11/15 02:05:37;;;;;;;32.90;4.10;;;11.10;99.90;;;;;;5048598;28;20205;-80
2023/11/15 02:08:04;;;;;;;32.17;3.95;;;11.10;99.90;;;;;;5048827;28;20216;-80
2023/11/15 02:10:30;;;;;;;31.60;4.50;;;11.10;99.90;;;;;;5047988;28;20177;-80
2023/11/15 02:12:56;;;;;;;32.95;4.20;;;11.10;99.90;;;;;;5048201;28;20189;-80
2023/11/15 02:15:22;;;;;;;31.42;4.68;;;11.10;99.90;;;;;;5047397;28;20165;-80
2023/11/15 02:17:48;;;;;;;37.22;5.95;;;11.10;99.90;;;;;;5047880;28;20177;-80
2023/11/15 02:20:19;;;;;;;33.63;4.17;;;11.10;99.90;;;;;;5047387;28;20181;-80
2023/11/15 02:22:47;;;;;;;32.47;4.18;;;11.10;99.90;;;;;;5048419;28;20404;-80
2023/11/15 02:25:14;;;;;;;43.10;5.95;;;11.10;99.90;;;;;;5048475;28;20204;-80
2023/11/15 02:27:40;;;;;;;33.90;5.00;;;11.10;99.90;;;;;;5048816;28;20611;-80
2023/11/15 02:30:08;;;;;;;35.13;5.53;;;11.10;99.90;;;;;;5046938;28;20166;-80
2023/11/15 02:32:39;;;;;;;31.33;4.22;;;11.10;99.90;;;;;;5047736;28;20170;-80
2023/11/15 02:35:07;;;;;;;31.73;3.90;;;11.20;99.90;;;;;;5045799;28;20193;-80
2023/11/15 02:37:34;;;;;;;36.70;4.95;;;11.10;99.90;;;;;;5046924;28;20200;-80
2023/11/15 02:40:04;;;;;;;34.90;4.80;;;11.10;99.90;;;;;;5047459;28;20170;-80
2023/11/15 02:42:32;;;;;;;33.30;4.28;;;11.10;99.90;;;;;;5049039;28;20234;-80
2023/11/15 02:44:58;;;;;;;31.83;4.63;;;11.20;99.90;;;;;;5048294;28;20193;-80
2023/11/15 02:47:25;;;;;;;30.27;4.43;;;11.10;99.90;;;;;;5046984;28;20158;-80
2023/11/15 02:49:54;;;;;;;34.38;4.85;;;11.10;99.90;;;;;;5048487;28;20162;-80
2023/11/15 02:52:21;;;;;;;31.20;4.38;;;11.10;99.90;;;;;;5047894;28;20162;-80
2023/11/15 02:54:50;;;;;;;34.47;5.22;;;11.10;99.90;;;;;;5048253;28;20193;-80
2023/11/15 02:57:16;;;;;;;38.65;5.55;;;11.20;99.90;;;;;;5048161;28;20181;-80
2023/11/15 02:59:41;;;;;;;35.30;4.77;;;11.20;99.90;;;;;;5045752;28;20173;-80
2023/11/15 03:02:08;;;;;;;30.60;3.57;;;11.20;99.90;;;;;;5047346;28;20177;-80
2023/11/15 03:04:33;;;;;;;41.03;5.22;;;11.20;99.90;;;;;;5049063;28;20244;-80
2023/11/15 03:06:59;;;;;;;40.00;4.50;;;11.20;99.90;;;;;;5049934;28;20166;-80
2023/11/15 03:09:25;;;;;;;34.47;4.20;;;11.20;99.90;;;;;;5049447;28;20162;-80
2023/11/15 03:11:50;;;;;;;36.00;5.40;;;11.20;99.90;;;;;;5047228;28;20162;-80
2023/11/15 03:14:17;;;;;;;41.47;4.07;;;11.20;99.90;;;;;;5046614;28;20216;-80
2023/11/15 03:16:43;;;;;;;39.07;4.30;;;11.20;99.90;;;;;;5046582;28;20190;-80
2023/11/15 03:19:09;;;;;;;35.13;4.60;;;11.20;99.90;;;;;;5047788;28;20174;-80
2023/11/15 03:21:35;;;;;;;29.50;3.57;;;11.20;99.90;;;;;;5047765;28;20169;-80
2023/11/15 03:24:04;;;;;;;32.67;3.90;;;11.20;99.90;;;;;;5048056;28;20188;-80
2023/11/15 03:26:29;;;;;;;34.08;4.05;;;11.30;99.90;;;;;;5049470;28;20197;-80
2023/11/15 03:28:55;;;;;;;30.77;3.53;;;11.20;99.90;;;;;;5048516;28;20170;-80
2023/11/15 03:31:20;;;;;;;29.07;3.10;;;11.20;99.90;;;;;;5047983;28;20624;-80
2023/11/15 03:33:47;;;;;;;28.47;3.03;;;11.20;99.90;;;;;;5047782;28;20692;-80
2023/11/15 03:36:15;;;;;;;32.47;4.07;;;11.20;99.90;;;;;;5047058;28;20174;-80
2023/11/15 03:38:41;;;;;;;31.95;4.20;;;11.10;99.90;;;;;;5046641;28;20173;-80
2023/11/15 03:41:07;;;;;;;29.53;3.30;;;11.10;99.90;;;;;;5046844;28;20200;-80
2023/11/15 03:43:32;;;;;;;28.77;3.30;;;11.10;99.90;;;;;;5046670;28;20201;-80
2023/11/15 03:45:59;;;;;;;31.73;3.73;;;11.10;99.90;;;;;;5047139;28;20189;-80
2023/11/15 03:48:26;;;;;;;30.38;3.33;;;11.10;99.90;;;;;;5045615;28;20180;-79
2023/11/15 03:50:52;;;;;;;30.85;3.25;;;11.00;99.90;;;;;;5047820;28;20192;-80
2023/11/15 03:53:17;;;;;;;30.53;4.10;;;11.00;99.90;;;;;;5050004;28;20182;-80
2023/11/15 03:55:43;;;;;;;33.33;3.33;;;11.10;99.90;;;;;;5047422;28;20185;-80
2023/11/15 03:58:09;;;;;;;31.10;3.60;;;11.10;99.90;;;;;;5046707;28;20627;-80
2023/11/15 04:00:34;;;;;;;29.17;3.10;;;11.10;99.90;;;;;;5048735;28;20166;-80
2023/11/15 04:03:00;;;;;;;31.23;2.83;;;11.10;99.90;;;;;;5047909;28;20173;-80
2023/11/15 04:05:27;;;;;;;28.27;3.50;;;11.10;99.90;;;;;;5047747;28;20212;-80
2023/11/15 04:07:56;;;;;;;30.27;3.30;;;11.10;99.90;;;;;;5047303;28;20179;-80
2023/11/15 04:10:23;;;;;;;34.55;4.78;;;11.10;99.90;;;;;;5047362;28;20201;-80
2023/11/15 04:12:52;;;;;;;29.15;3.85;;;11.10;99.90;;;;;;5048448;28;20204;-79
2023/11/15 04:15:22;;;;;;;30.98;3.35;;;11.10;99.90;;;;;;5046713;28;20173;-80
2023/11/15 04:17:48;;;;;;;28.52;2.88;;;11.10;99.90;;;;;;5046506;28;20197;-80
2023/11/15 04:20:14;;;;;;;33.53;3.50;;;11.10;99.90;;;;;;5045968;28;20193;-80
2023/11/15 04:22:39;;;;;;;36.73;3.93;;;11.10;99.90;;;;;;5047047;28;20162;-80
2023/11/15 04:25:05;;;;;;;32.20;2.90;;;11.10;99.90;;;;;;5047147;28;20216;-80
2023/11/15 04:27:31;;;;;;;28.48;4.40;;;11.10;99.90;;;;;;5047825;28;20162;-79
2023/11/15 04:29:57;;;;;;;28.77;3.07;;;11.10;99.90;;;;;;5045835;28;20201;-80
2023/11/15 04:32:24;;;;;;;31.40;4.25;;;11.10;99.90;;;;;;5045912;28;20165;-80
2023/11/15 04:34:50;;;;;;;33.15;4.07;;;11.10;99.90;;;;;;5044958;28;20198;-80
2023/11/15 04:37:16;;;;;;;26.87;3.43;;;11.10;99.90;;;;;;5047357;28;20170;-80
2023/11/15 04:39:42;;;;;;;31.45;3.53;;;11.10;99.90;;;;;;5047608;28;20236;-80
2023/11/15 04:42:10;;;;;;;32.17;3.60;;;11.10;99.90;;;;;;5045348;28;20233;-80
2023/11/15 04:44:36;;;;;;;27.20;2.75;;;11.10;99.90;;;;;;5044414;28;20432;-79
2023/11/15 04:47:03;;;;;;;32.77;3.60;;;11.10;99.90;;;;;;5040284;28;20239;-79
2023/11/15 04:49:30;;;;;;;32.55;4.32;;;11.10;99.90;;;;;;5039745;28;20208;-78
2023/11/15 04:51:56;;;;;;;32.00;3.75;;;11.10;99.90;;;;;;5040333;28;20212;-79
2023/11/15 04:54:21;;;;;;;34.45;4.10;;;11.00;99.90;;;;;;5040434;28;20256;-79
2023/11/15 04:56:49;;;;;;;34.20;4.27;;;11.00;99.90;;;;;;5039979;28;20189;-79
2023/11/15 04:59:14;;;;;;;32.88;3.53;;;11.00;99.90;;;;;;5040370;28;20204;-79
2023/11/15 05:01:41;;;;;;;30.73;3.70;;;11.00;99.90;;;;;;5039339;28;20169;-79
2023/11/15 05:04:10;;;;;;;35.42;4.30;;;11.00;99.90;;;;;;5041281;28;20193;-79
2023/11/15 05:06:36;;;;;;;33.63;4.18;;;11.00;99.90;;;;;;5040419;28;20573;-79
2023/11/15 05:09:01;;;;;;;33.27;3.80;;;11.00;99.90;;;;;;5041805;28;20165;-79
2023/11/15 05:11:27;;;;;;;31.40;4.43;;;11.00;99.90;;;;;;5040911;28;20499;-79
2023/11/15 05:13:53;;;;;;;34.00;4.97;;;11.00;99.90;;;;;;5041029;28;20240;-79
2023/11/15 05:16:18;;;;;;;35.77;4.40;;;11.00;99.90;;;;;;5041217;28;20181;-80
2023/11/15 05:18:44;;;;;;;32.67;3.73;;;10.90;99.90;;;;;;5041979;28;20178;-79
2023/11/15 05:21:10;;;;;;;34.27;4.10;;;11.00;99.90;;;;;;5040444;28;20177;-79
2023/11/15 05:23:36;;;;;;;37.23;4.57;;;11.00;99.90;;;;;;5042818;28;20190;-79
2023/11/15 05:26:02;;;;;;;39.10;4.57;;;11.00;99.90;;;;;;5042406;28;20453;-79
2023/11/15 05:28:27;;;;;;;31.45;3.72;;;11.00;99.90;;;;;;5042725;28;20166;-80
2023/11/15 05:30:54;;;;;;;28.70;3.10;;;11.00;99.90;;;;;;5043586;28;20184;-79
2023/11/15 05:33:20;;;;;;;35.28;4.50;;;11.00;99.90;;;;;;5043655;28;20190;-80
2023/11/15 05:35:46;;;;;;;30.97;3.80;;;11.00;99.90;;;;;;5043344;28;20216;-80
2023/11/15 05:38:11;;;;;;;36.50;3.40;;;11.00;99.90;;;;;;5043996;28;20219;-80
2023/11/15 05:40:37;;;;;;;34.77;3.60;;;11.00;99.90;;;;;;5043197;28;20220;-80
2023/11/15 05:43:03;;;;;;;32.60;3.90;;;11.00;99.90;;;;;;5042955;28;20177;-79
2023/11/15 05:45:28;;;;;;;31.30;3.40;;;11.00;99.90;;;;;;5044574;28;20200;-80
2023/11/15 05:47:54;;;;;;;32.17;4.00;;;11.00;99.90;;;;;;5044164;28;20204;-80
2023/11/15 05:50:20;;;;;;;29.10;3.50;;;11.00;99.90;;;;;;5041881;28;20162;-80
2023/11/15 05:52:48;;;;;;;36.97;4.67;;;11.00;99.90;;;;;;5045226;28;20168;-79
2023/11/15 05:55:14;;;;;;;30.98;4.40;;;11.00;99.90;;;;;;5045625;28;20166;-80
2023/11/15 05:57:40;;;;;;;32.10;4.33;;;11.00;99.90;;;;;;5046272;28;20730;-80
2023/11/15 06:00:18;;;;;;;35.07;3.97;;;11.00;99.90;;;;;;5046843;28;20431;-80
2023/11/15 06:02:45;;;;;;;34.38;4.20;;;11.00;99.90;;;;;;5046604;28;20146;-79
2023/11/15 06:05:11;;;;;;;31.95;4.82;;;11.00;99.90;;;;;;5045933;28;20224;-79
2023/11/15 06:07:37;;;;;;;32.42;4.15;;;11.00;99.90;;;;;;5047855;28;20170;-80
2023/11/15 06:10:03;;;;;;;32.60;4.33;;;10.90;99.90;;;;;;5045745;28;20224;-80
2023/11/15 06:12:28;;;;;;;33.47;4.50;;;10.90;99.90;;;;;;5046164;28;20166;-80
2023/11/15 06:14:54;;;;;;;32.73;4.90;;;10.90;99.90;;;;;;5045523;28;20468;-80
2023/11/15 06:17:20;;;;;;;36.57;5.47;;;10.90;99.90;;;;;;5048139;28;20188;-80
2023/11/15 06:19:46;;;;;;;33.17;4.17;;;10.90;99.90;;;;;;5045785;28;20408;-80
2023/11/15 06:22:11;;;;;;;32.63;4.30;;;10.90;99.90;;;;;;5047924;28;20167;-80
2023/11/15 06:24:42;;;;;;;35.70;4.77;;;10.90;99.90;;;;;;5046847;28;20185;-80
2023/11/15 06:27:08;;;;;;;34.28;4.70;;;10.90;99.90;;;;;;5047948;28;20162;-80
2023/11/15 06:29:34;;;;;;;34.23;4.70;;;11.00;99.90;;;;;;5045418;28;20656;-80
2023/11/15 06:31:59;;;;;;;31.60;4.50;;;11.00;99.90;;;;;;5046865;28;20412;-79
2023/11/15 06:34:25;;;;;;;32.37;4.77;;;11.00;99.90;;;;;;5049442;28;20528;-79
2023/11/15 06:36:54;;;;;;;33.07;4.00;;;11.00;99.90;;;;;;5047150;28;20400;-80
2023/11/15 06:39:21;;;;;;;30.25;3.70;;;11.00;99.90;;;;;;5048620;28;20162;-79
2023/11/15 06:41:46;;;;;;;28.63;3.35;;;11.00;99.90;;;;;;5049177;28;20169;-80
2023/11/15 06:44:12;;;;;;;31.33;4.00;;;11.00;99.90;;;;;;5050051;28;20197;-79
2023/11/15 06:46:38;;;;;;;48.10;4.00;;;11.10;99.90;;;;;;5049107;28;20449;-80
2023/11/15 06:49:10;;;;;;;30.13;3.90;;;11.10;99.90;;;;;;5048529;28;20431;-80
2023/11/15 06:51:46;;;;;;;32.30;4.05;;;11.00;99.90;;;;;;5046808;28;20220;-80
2023/11/15 06:54:11;;;;;;;33.97;4.22;;;11.00;99.90;;;;;;5046924;28;20177;-78
2023/11/15 06:56:37;;;;;;;30.50;4.30;;;11.10;99.90;;;;;;5045257;28;20173;-79
2023/11/15 06:59:03;;;;;;;32.80;4.20;;;11.10;99.90;;;;;;5046530;28;20257;-79
2023/11/15 07:01:30;;;;;;;33.13;3.95;;;11.10;99.90;;;;;;5048413;28;20169;-80
2023/11/15 07:03:58;;;;;;;28.08;4.38;;;11.10;99.90;;;;;;5046957;28;20189;-78
2023/11/15 07:06:24;;;;;;;33.72;3.80;;;11.10;99.90;;;;;;5046216;28;20192;-79
2023/11/15 07:08:50;;;;;;;32.42;4.85;;;11.10;99.90;;;;;;5046434;28;20170;-79
2023/11/15 07:11:15;;;;;;;38.07;5.13;;;11.20;99.90;;;;;;5047742;28;20249;-79
2023/11/15 07:13:48;;;;;;;32.33;4.43;;;11.20;99.90;;;;;;5047599;28;20185;-79
2023/11/15 07:16:17;;;;;;;33.30;4.10;;;11.20;99.90;;;;;;5046042;28;20151;-78
2023/11/15 07:18:42;;;;;;;33.65;4.28;;;11.20;99.90;;;;;;5049038;28;20170;-80
2023/11/15 07:21:08;;;;;;;29.97;3.77;;;11.20;99.90;;;;;;5047694;28;20231;-79
2023/11/15 07:23:34;;;;;;;30.50;3.80;;;11.20;99.90;;;;;;5047969;28;20193;-79
2023/11/15 07:26:01;;;;;;;28.60;3.22;;;11.30;99.90;;;;;;5048110;28;20475;-79
2023/11/15 07:28:27;;;;;;;31.08;3.60;;;11.30;99.90;;;;;;5046916;28;20193;-79
2023/11/15 07:30:55;;;;;;;27.40;3.23;;;11.20;99.90;;;;;;5049205;28;20642;-79
2023/11/15 07:33:21;;;;;;;32.85;3.90;;;11.30;99.90;;;;;;5049791;28;20856;-79
2023/11/15 07:35:47;;;;;;;31.83;3.93;;;11.30;99.90;;;;;;5049610;28;20193;-81
2023/11/15 07:38:16;;;;;;;31.50;4.30;;;11.30;99.90;;;;;;5049092;28;20480;-79
2023/11/15 07:40:42;;;;;;;30.13;3.42;;;11.30;99.90;;;;;;5047665;28;20657;-79
2023/11/15 07:43:08;;;;;;;28.20;3.00;;;11.30;99.90;;;;;;5049195;28;20206;-79
2023/11/15 07:45:38;;;;;;;29.85;3.60;;;11.30;99.90;;;;;;5047875;28;20247;-79
2023/11/15 07:48:05;;;;;;;36.88;4.05;;;11.30;99.90;;;;;;5046579;28;20516;-79
2023/11/15 07:50:35;;;;;;;39.83;4.45;;;11.30;99.90;;;;;;5046920;28;20212;-79
2023/11/15 07:53:01;;;;;;;30.52;3.75;;;11.30;99.90;;;;;;5049088;28;20208;-79
2023/11/15 07:55:27;;;;;;;30.40;3.57;;;11.40;99.90;;;;;;5050137;28;20177;-79
2023/11/15 07:57:53;;;;;;;33.97;3.15;;;11.40;99.90;;;;;;5049114;28;20412;-79
2023/11/15 08:00:25;;;;;;;30.02;3.90;;;11.40;99.90;;;;;;5048279;28;20170;-79
2023/11/15 08:02:54;;;;;;;29.05;3.42;;;11.50;99.90;;;;;;5047059;28;20146;-79
2023/11/15 08:05:20;;;;;;;36.83;4.40;;;11.50;99.90;;;;;;5046849;28;20251;-79
2023/11/15 08:07:47;;;;;;;28.85;3.05;;;11.50;99.90;;;;;;5048272;28;20166;-79
2023/11/15 08:10:14;;;;;;;29.77;3.28;;;11.50;99.90;;;;;;5047458;28;20188;-79
2023/11/15 08:12:43;;;;;;;32.00;4.38;;;11.40;99.90;;;;;;5047106;28;20154;-79
2023/11/15 08:15:11;;;;;;;32.30;3.80;;;11.40;99.90;;;;;;5049101;28;20201;-79
2023/11/15 08:17:37;;;;;;;31.02;4.15;;;11.50;99.90;;;;;;5046716;28;20255;-79
2023/11/15 08:20:04;;;;;;;28.65;3.03;;;11.50;99.90;;;;;;5045892;28;20169;-79
2023/11/15 08:22:31;;;;;;;32.08;3.80;;;11.50;99.90;;;;;;5047831;28;20173;-79
2023/11/15 08:24:57;;;;;;;28.42;3.00;;;11.60;99.90;;;;;;5047047;28;20284;-79
2023/11/15 08:27:23;;;;;;;31.83;3.30;;;11.60;99.90;;;;;;5046825;28;20161;-79
2023/11/15 08:29:49;;;;;;;30.07;3.17;;;11.60;99.90;;;;;;5047879;28;20170;-79
2023/11/15 08:32:15;;;;;;;30.30;3.73;;;11.70;99.90;;;;;;5047380;28;20173;-79
2023/11/15 08:34:41;;;;;;;26.15;2.75;;;11.80;99.90;;;;;;5048519;28;20552;-79
2023/11/15 08:37:08;;;;;;;33.23;3.27;;;11.80;99.90;;;;;;5047157;28;20158;-79
2023/11/15 08:39:34;;;;;;;27.88;3.03;;;11.90;99.90;;;;;;5046897;28;20409;-79
2023/11/15 08:41:59;;;;;;;30.67;3.10;;;11.90;99.90;;;;;;5046938;28;20165;-79
2023/11/15 08:44:25;;;;;;;25.60;3.17;;;12.00;99.90;;;;;;5048780;28;20431;-79
2023/11/15 08:46:51;;;;;;;27.50;2.60;;;11.90;99.90;;;;;;5048495;28;20444;-80
2023/11/15 08:49:17;;;;;;;24.92;2.60;;;11.90;99.90;;;;;;5048378;28;20169;-79
2023/11/15 08:51:45;;;;;;;30.15;3.13;;;12.00;99.90;;;;;;5048192;28;20212;-79
2023/11/15 08:54:11;;;;;;;30.05;2.72;;;12.00;99.90;;;;;;5048986;28;20261;-79
2023/11/15 08:56:40;;;;;;;25.65;2.42;;;12.00;99.90;;;;;;5047658;28;20180;-79
2023/11/15 08:59:11;;;;;;;32.08;3.42;;;11.90;99.90;;;;;;5046836;28;20170;-79
2023/11/15 09:01:38;;;;;;;28.73;3.05;;;11.90;99.90;;;;;;5046710;28;20681;-79
2023/11/15 09:04:05;;;;;;;27.48;3.47;;;12.00;99.90;;;;;;5045055;28;20559;-79
2023/11/15 09:06:31;;;;;;;33.30;3.65;;;12.00;99.90;;;;;;5048605;28;20197;-80
2023/11/15 09:08:57;;;;;;;29.83;3.75;;;12.00;99.90;;;;;;5047291;28;20170;-79
2023/11/15 09:11:23;;;;;;;27.92;3.00;;;12.00;99.90;;;;;;5046617;28;20176;-80
2023/11/15 09:13:49;;;;;;;25.47;2.80;;;12.00;99.90;;;;;;5048642;28;20189;-79
2023/11/15 09:16:16;;;;;;;28.13;2.50;;;11.90;99.90;;;;;;5049778;28;20221;-79
2023/11/15 09:18:42;;;;;;;31.83;3.35;;;11.90;99.90;;;;;;5047767;28;20200;-79
2023/11/15 09:21:11;;;;;;;27.95;3.35;;;11.90;99.90;;;;;;5046358;28;20162;-79
2023/11/15 09:23:38;;;;;;;28.25;2.85;;;11.90;99.90;;;;;;5044455;28;20194;-79
2023/11/15 09:26:04;;;;;;;25.92;2.40;;;11.90;99.90;;;;;;5045013;28;20224;-79
2023/11/15 09:28:30;;;;;;;28.93;4.10;;;11.90;99.90;;;;;;5046935;28;20539;-79
2023/11/15 09:30:56;;;;;;;32.47;4.18;;;11.90;99.90;;;;;;5049785;28;20162;-79
2023/11/15 09:33:21;;;;;;;26.30;2.90;;;11.90;99.90;;;;;;5050223;28;20193;-79
2023/11/15 09:35:47;;;;;;;25.70;2.60;;;11.90;99.90;;;;;;5049480;28;20197;-79
2023/11/15 09:38:14;;;;;;;23.40;2.55;;;11.80;99.90;;;;;;5050680;28;20172;-79
2023/11/15 09:40:41;;;;;;;29.17;2.97;;;11.80;99.90;;;;;;5049877;28;20166;-79
2023/11/15 09:43:10;;;;;;;28.65;2.63;;;11.80;99.90;;;;;;5049116;28;20255;-79
2023/11/15 09:45:43;;;;;;;23.33;2.15;;;11.80;99.90;;;;;;5048271;28;20209;-79
2023/11/15 09:48:10;;;;;;;21.63;2.33;;;11.80;99.90;;;;;;5050296;28;20694;-79
2023/11/15 09:50:37;;;;;;;23.55;2.55;;;11.80;99.90;;;;;;5051189;28;20158;-79
2023/11/15 09:53:05;;;;;;;25.85;2.45;;;11.80;99.90;;;;;;5051202;28;20166;-79
2023/11/15 09:55:31;;;;;;;26.42;2.47;;;11.80;99.90;;;;;;5049813;28;20169;-79
2023/11/15 09:57:57;;;;;;;23.05;2.13;;;11.80;99.90;;;;;;5048991;28;20186;-79
2023/11/15 10:00:29;;;;;;;24.17;2.20;;;12.00;99.90;;;;;;5047780;28;20520;-79
2023/11/15 10:02:55;;;;;;;24.98;2.50;;;12.00;99.90;;;;;;5049358;28;20177;-79
2023/11/15 10:05:30;;;;;;;24.50;2.65;;;12.10;99.90;;;;;;5049763;28;20193;-79
2023/11/15 10:08:07;;;;;;;21.80;2.70;;;12.10;99.90;;;;;;5049944;28;20693;-79
2023/11/15 10:10:33;;;;;;;22.02;2.75;;;12.20;99.90;;;;;;5051379;28;20162;-79
2023/11/15 10:13:03;;;;;;;25.60;2.90;;;12.10;99.90;;;;;;5048715;28;20661;-82
2023/11/15 10:15:39;;;;;;;26.38;2.90;;;12.10;99.90;;;;;;5051156;28;20562;-80
2023/11/15 10:18:11;;;;;;;25.05;2.58;;;12.00;99.90;;;;;;5051357;28;20177;-79
2023/11/15 10:20:37;;;;;;;26.60;2.00;;;12.00;99.90;;;;;;5048758;28;20157;-79
2023/11/15 10:23:03;;;;;;;24.85;2.15;;;12.10;99.90;;;;;;5050719;28;20162;-79
2023/11/15 10:25:31;;;;;;;23.85;3.05;;;12.10;99.90;;;;;;5046650;28;20197;-79
2023/11/15 10:28:07;;;;;;;23.63;2.67;;;12.00;99.90;;;;;;5050858;28;20181;-79
2023/11/15 10:30:33;;;;;;;19.45;1.60;;;12.00;99.90;;;;;;5048089;28;20150;-80
2023/11/15 10:33:07;;;;;;;21.07;2.10;;;12.00;99.90;;;;;;5047461;28;20162;-79
2023/11/15 10:35:33;;;;;;;23.55;2.83;;;12.00;99.90;;;;;;5049299;28;20447;-79
2023/11/15 10:38:00;;;;;;;22.00;2.30;;;12.00;99.90;;;;;;5048703;28;20162;-79
2023/11/15 10:40:26;;;;;;;26.52;2.75;;;12.10;99.90;;;;;;5048166;28;20169;-79
2023/11/15 10:43:01;;;;;;;22.05;2.30;;;12.20;99.90;;;;;;5048875;28;20170;-79
2023/11/15 10:45:31;;;;;;;22.23;2.63;;;12.30;99.90;;;;;;5045804;28;20212;-79
2023/11/15 10:48:03;;;;;;;24.55;2.53;;;12.50;99.90;;;;;;5048317;28;20185;-79
2023/11/15 10:50:37;;;;;;;24.88;1.95;;;12.70;99.90;;;;;;5048675;28;20165;-79
2023/11/15 10:53:09;;;;;;;22.33;2.13;;;12.90;99.90;;;;;;5048242;28;20184;-79
2023/11/15 10:55:38;;;;;;;21.33;1.75;;;13.00;99.90;;;;;;5047060;28;20158;-79
2023/11/15 10:58:07;;;;;;;27.77;3.28;;;13.00;99.90;;;;;;5046832;28;20233;-79
2023/11/15 11:00:34;;;;;;;25.33;2.15;;;13.00;99.90;;;;;;5050101;28;20158;-79
2023/11/15 11:03:01;;;;;;;22.35;2.30;;;13.00;99.90;;;;;;5048829;28;20228;-79
2023/11/15 11:05:49;;;;;;;22.77;2.03;;;12.90;99.90;;;;;;5048301;28;20253;-79
2023/11/15 11:08:53;;;;;;;27.10;2.20;;;12.80;99.90;;;;;;5047416;28;20162;-80
2023/11/15 11:11:40;;;;;;;19.50;1.83;;;12.80;99.90;;;;;;5048820;28;20623;-79
2023/11/15 11:14:19;;;;;;;22.88;2.30;;;12.90;99.90;;;;;;5048450;28;20194;-79
2023/11/15 11:16:44;;;;;;;22.48;2.03;;;13.10;99.90;;;;;;5048339;28;20170;-79
2023/11/15 11:19:16;;;;;;;21.87;2.03;;;13.20;99.90;;;;;;5046814;28;20658;-79
2023/11/15 11:22:04;;;;;;;20.33;2.00;;;13.20;99.90;;;;;;5048102;28;20381;-79
2023/11/15 11:25:10;;;;;;;24.25;2.10;;;13.20;99.90;;;;;;5047892;28;20204;-79
2023/11/15 11:27:55;;;;;;;21.92;2.00;;;13.30;99.90;;;;;;5047669;28;20233;-79
2023/11/15 11:30:23;;;;;;;23.02;2.90;;;13.50;99.90;;;;;;5048000;28;20204;-79
2023/11/15 11:33:05;;;;;;;26.35;1.98;;;13.60;99.90;;;;;;5048367;28;20163;-79
2023/11/15 11:35:34;;;;;;;21.15;1.98;;;13.80;99.90;;;;;;5044057;28;20579;-79
2023/11/15 11:38:00;;;;;;;22.70;2.13;;;13.80;99.90;;;;;;5046640;28;20157;-79
2023/11/15 11:40:32;;;;;;;22.38;1.90;;;13.80;99.90;;;;;;5047724;28;20168;-79
2023/11/15 11:43:30;;;;;;;23.38;2.40;;;13.90;99.90;;;;;;5046204;28;20146;-79
2023/11/15 11:45:57;;;;;;;21.45;3.30;;;13.90;99.90;;;;;;5038559;28;20217;-79
2023/11/15 11:48:22;;;;;;;19.45;1.80;;;13.80;99.90;;;;;;5047849;28;20245;-79
2023/11/15 11:51:00;;;;;;;24.17;2.70;;;13.70;99.90;;;;;;5047018;28;20166;-79
2023/11/15 11:53:32;;;;;;;21.60;2.20;;;13.70;99.90;;;;;;5047632;28;20586;-79
2023/11/15 11:55:58;;;;;;;27.97;3.07;;;13.70;99.90;;;;;;5048302;28;20150;-79
2023/11/15 11:58:28;;;;;;;29.03;2.40;;;13.70;99.90;;;;;;5046496;28;20472;-79
2023/11/15 12:01:01;;;;;;;19.60;1.98;;;13.60;99.90;;;;;;5047838;28;20177;-79
2023/11/15 12:03:30;;;;;;;20.67;2.03;;;13.60;99.90;;;;;;5047915;28;20197;-79
2023/11/15 12:06:10;;;;;;;19.35;1.92;;;13.50;99.90;;;;;;5046406;28;20186;-79
2023/11/15 12:08:38;;;;;;;20.73;2.30;;;13.30;99.90;;;;;;5046271;28;20159;-79
2023/11/15 12:11:05;;;;;;;23.27;2.03;;;13.20;99.90;;;;;;5046948;28;20727;-80
2023/11/15 12:13:48;;;;;;;20.35;2.10;;;13.10;99.90;;;;;;5045836;28;20186;-79
2023/11/15 12:16:22;;;;;;;19.40;1.60;;;12.90;99.90;;;;;;5045600;28;20682;-79
2023/11/15 12:19:12;;;;;;;20.10;1.75;;;12.90;99.90;;;;;;5048646;28;20181;-79
2023/11/15 12:21:43;;;;;;;23.50;2.00;;;12.80;99.90;;;;;;5048542;28;20146;-79
2023/11/15 12:24:10;;;;;;;19.90;1.85;;;12.90;99.90;;;;;;5044846;28;20209;-79
2023/11/15 12:26:44;;;;;;;23.08;2.63;;;12.90;99.90;;;;;;5045891;28;20190;-79
2023/11/15 12:29:19;;;;;;;20.20;1.95;;;13.00;99.90;;;;;;5048074;28;20143;-79
2023/11/15 12:31:51;;;;;;;22.48;1.98;;;13.10;99.90;;;;;;5050413;28;20160;-79
2023/11/15 12:34:18;;;;;;;20.95;2.20;;;13.20;99.90;;;;;;5049901;28;20178;-79
2023/11/15 12:36:47;;;;;;;21.20;2.00;;;13.30;99.90;;;;;;5048675;28;20188;-79
2023/11/15 12:39:17;;;;;;;23.15;1.83;;;13.30;99.90;;;;;;5049118;28;20217;-79